Time;durP1;ratioP1;P1;durP2;ratioP2;P2;SDS_P1;SDS_P2;PMS_P1;PMS_P2;Temp;Humidity;BMP_temperature;BMP_pressure;BME280_temperature;BME280_humidity;BME280_pressure;Samples;Min_cycle;Max_cycle;Signal;HPM_P1;HPM_P2
2022/03/29 00:00:01;;;;;;;13.25;9.55;;;;;;;7.63;100.00;101869.59;5055425;28;20047;-29
2022/03/29 00:02:28;;;;;;;12.15;8.77;;;;;;;7.60;100.00;101867.31;5067780;28;20049;-27
2022/03/29 00:04:59;;;;;;;12.30;8.68;;;;;;;7.58;100.00;101862.06;5071600;28;20076;-29
2022/03/29 00:07:27;;;;;;;13.32;9.40;;;;;;;7.57;100.00;101867.84;5061414;28;20216;-29
2022/03/29 00:09:55;;;;;;;14.95;10.23;;;;;;;7.54;100.00;101855.31;5061539;28;20278;-28
2022/03/29 00:12:24;;;;;;;13.55;9.77;;;;;;;7.53;100.00;101861.97;5060303;28;20041;-28
2022/03/29 00:14:52;;;;;;;11.80;8.30;;;;;;;7.52;100.00;101868.63;5061912;28;20056;-27
2022/03/29 00:17:19;;;;;;;10.23;7.43;;;;;;;7.52;100.00;101865.00;5060418;28;20051;-29
2022/03/29 00:19:47;;;;;;;13.40;10.27;;;;;;;7.54;100.00;101868.38;5061592;28;20133;-28
2022/03/29 00:22:15;;;;;;;11.60;8.23;;;;;;;7.53;100.00;101859.19;5059990;28;20059;-28
2022/03/29 00:24:43;;;;;;;11.77;8.63;;;;;;;7.54;100.00;101863.66;5061216;28;20107;-28
2022/03/29 00:27:11;;;;;;;14.57;10.52;;;;;;;7.54;100.00;101854.47;5062399;28;20055;-28
2022/03/29 00:29:40;;;;;;;14.02;9.63;;;;;;;7.53;100.00;101852.78;5058821;28;20441;-29
2022/03/29 00:32:08;;;;;;;14.82;10.90;;;;;;;7.50;100.00;101844.97;5064038;28;20069;-28
2022/03/29 00:34:37;;;;;;;14.18;9.93;;;;;;;7.50;100.00;101843.03;5059251;28;20140;-28
2022/03/29 00:37:05;;;;;;;14.25;10.18;;;;;;;7.51;100.00;101833.59;5063948;28;20084;-27
2022/03/29 00:39:33;;;;;;;14.77;11.18;;;;;;;7.52;100.00;101840.84;5059206;28;20053;-27
2022/03/29 00:42:01;;;;;;;12.68;9.50;;;;;;;7.51;100.00;101844.72;5064691;28;20044;-29
2022/03/29 00:44:31;;;;;;;16.60;11.65;;;;;;;7.52;100.00;101842.78;5057467;28;20131;-27
2022/03/29 00:47:02;;;;;;;15.32;9.90;;;;;;;7.50;100.00;101829.16;5064526;28;20044;-30
2022/03/29 00:49:30;;;;;;;15.93;10.75;;;;;;;7.50;100.00;101831.09;5059125;28;20132;-30
2022/03/29 00:52:02;;;;;;;17.73;11.85;;;;;;;7.49;100.00;101833.00;5063807;28;20049;-28
2022/03/29 00:54:32;;;;;;;13.30;9.38;;;;;;;7.47;100.00;101818.53;5058815;28;20135;-29
2022/03/29 00:57:01;;;;;;;10.35;7.82;;;;;;;7.48;100.00;101823.00;5063568;28;20036;-29
2022/03/29 00:59:30;;;;;;;14.93;10.73;;;;;;;7.50;100.00;101814.41;5066770;28;20052;-28
2022/03/29 01:01:58;;;;;;;18.38;13.48;;;;;;;7.53;100.00;101805.59;5062397;28;20052;-28
2022/03/29 01:04:28;;;;;;;13.10;9.13;;;;;;;7.54;100.00;101807.25;5059243;28;20056;-27
2022/03/29 01:06:57;;;;;;;14.30;10.65;;;;;;;7.54;100.00;101808.09;5060617;28;20051;-28
2022/03/29 01:09:25;;;;;;;16.80;11.52;;;;;;;7.54;100.00;101804.47;5065070;28;20523;-27
2022/03/29 01:11:53;;;;;;;18.50;13.68;;;;;;;7.54;100.00;101807.25;5063230;28;20048;-28
2022/03/29 01:14:22;;;;;;;19.67;13.27;;;;;;;7.55;100.00;101803.41;5066452;28;20405;-26
2022/03/29 01:19:39;;;;;;;12.57;9.20;;;;;;;7.56;100.00;101792.03;5058222;28;20036;-28
2022/03/29 01:22:10;;;;;;;13.10;9.45;;;;;;;7.57;100.00;101784.53;5061250;28;20059;-27
2022/03/29 01:24:40;;;;;;;12.38;8.25;;;;;;;7.56;100.00;101788.41;5058877;28;20044;-28
2022/03/29 01:27:09;;;;;;;12.13;8.80;;;;;;;7.58;100.00;101783.44;5062977;28;20037;-29
2022/03/29 01:29:38;;;;;;;15.52;10.50;;;;;;;7.60;100.00;101781.22;5064708;28;20044;-27
2022/03/29 01:32:09;;;;;;;13.98;9.65;;;;;;;7.61;100.00;101783.75;5064760;28;20059;-27
2022/03/29 01:34:40;;;;;;;13.55;9.50;;;;;;;7.60;100.00;101770.94;5064684;28;20056;-30
2022/03/29 01:37:10;;;;;;;12.68;8.70;;;;;;;7.61;100.00;101774.56;5064643;28;20120;-28
2022/03/29 01:39:39;;;;;;;12.98;9.13;;;;;;;7.63;100.00;101780.72;5062928;28;20058;-28
2022/03/29 01:42:08;;;;;;;16.52;11.30;;;;;;;7.64;100.00;101781.56;5065145;28;20050;-27
2022/03/29 01:44:37;;;;;;;16.17;10.30;;;;;;;7.65;100.00;101770.19;5061500;28;20044;-28
2022/03/29 01:47:06;;;;;;;14.55;10.98;;;;;;;7.66;100.00;101765.47;5065054;28;20033;-28
2022/03/29 01:49:34;;;;;;;18.38;11.55;;;;;;;7.67;100.00;101758.81;5060279;28;20094;-27
2022/03/29 01:52:02;;;;;;;14.85;9.57;;;;;;;7.66;100.00;101759.91;5065926;28;20068;-27
2022/03/29 01:54:32;;;;;;;14.65;9.52;;;;;;;7.67;100.00;101759.66;5059176;28;20135;-29
2022/03/29 01:57:00;;;;;;;13.65;9.63;;;;;;;7.67;100.00;101753.25;5065891;28;20048;-28
2022/03/29 02:00:30;;;;;;;17.75;11.48;;;;;;;7.67;100.00;101756.88;5059803;28;20052;-31
2022/03/29 02:02:16;;;;;;;15.23;10.50;;;;;;;7.67;100.00;101765.22;5064468;28;20123;-27
2022/03/29 02:04:44;;;;;;;15.63;10.60;;;;;;;7.69;100.00;101762.19;5056788;28;20040;-28
2022/03/29 02:07:12;;;;;;;17.27;11.13;;;;;;;7.67;100.00;101754.09;5065639;28;20128;-29
2022/03/29 02:09:41;;;;;;;17.48;12.85;;;;;;;7.67;100.00;101754.09;5059097;28;20136;-27
2022/03/29 02:12:12;;;;;;;21.48;14.75;;;;;;;7.66;100.00;101749.66;5065482;28;20048;-29
2022/03/29 02:14:40;;;;;;;18.50;13.95;;;;;;;7.66;100.00;101741.31;5059417;28;20163;-30
2022/03/29 02:17:08;;;;;;;13.88;10.48;;;;;;;7.67;100.00;101739.38;5065816;28;20049;-29
2022/03/29 02:19:36;;;;;;;18.13;14.13;;;;;;;7.67;100.00;101734.66;5061637;28;20048;-28
2022/03/29 02:22:04;;;;;;;20.00;15.82;;;;;;;7.69;100.00;101726.91;5063433;28;20052;-29
2022/03/29 02:24:32;;;;;;;18.27;14.13;;;;;;;7.71;100.00;101735.81;5063298;28;20151;-27
2022/03/29 02:27:01;;;;;;;16.65;13.30;;;;;;;7.70;100.00;101725.81;5064221;28;20037;-28
2022/03/29 02:29:29;;;;;;;19.05;13.60;;;;;;;7.71;100.00;101730.28;5062112;28;20049;-29
2022/03/29 02:31:57;;;;;;;20.42;15.77;;;;;;;7.71;100.00;101724.72;5065217;28;20048;-29
2022/03/29 02:34:24;;;;;;;20.05;15.07;;;;;;;7.70;100.00;101717.47;5062854;28;20059;-28
2022/03/29 02:36:52;;;;;;;17.60;13.15;;;;;;;7.69;100.00;101721.34;5063129;28;20144;-28
2022/03/29 02:39:20;;;;;;;13.38;10.25;;;;;;;7.69;100.00;101712.19;5058397;28;20040;-29
2022/03/29 02:41:47;;;;;;;19.80;15.10;;;;;;;7.68;100.00;101719.66;5059442;28;20167;-28
2022/03/29 02:44:17;;;;;;;19.38;13.23;;;;;;;7.70;100.00;101724.97;5057600;28;20053;-29
2022/03/29 02:46:45;;;;;;;21.45;13.40;;;;;;;7.70;100.00;101711.06;5060998;28;20045;-26
2022/03/29 02:49:12;;;;;;;18.65;12.73;;;;;;;7.72;100.00;101708.88;5057153;28;20124;-29
2022/03/29 02:51:40;;;;;;;22.20;14.05;;;;;;;7.73;100.00;101714.19;5062100;28;20041;-27
2022/03/29 02:54:08;;;;;;;19.27;13.88;;;;;;;7.75;100.00;101708.38;5057375;28;20047;-28
2022/03/29 02:56:36;;;;;;;16.08;11.55;;;;;;;7.75;100.00;101705.59;5062328;28;20112;-30
2022/03/29 02:59:04;;;;;;;17.50;12.77;;;;;;;7.74;100.00;101696.41;5053239;28;20053;-28
2022/03/29 03:01:33;;;;;;;17.80;13.00;;;;;;;7.74;100.00;101696.41;5055372;28;20053;-27
2022/03/29 03:04:02;;;;;;;13.45;10.00;;;;;;;7.76;100.00;101698.94;5064824;28;20064;-27
2022/03/29 03:06:29;;;;;;;17.98;12.57;;;;;;;7.77;100.00;101690.34;5060479;28;20045;-31
2022/03/29 03:08:57;;;;;;;16.70;12.23;;;;;;;7.80;100.00;101691.75;5050968;28;20045;-29
2022/03/29 03:11:25;;;;;;;19.17;13.70;;;;;;;7.80;100.00;101698.13;5063351;28;20186;-28
2022/03/29 03:13:53;;;;;;;15.70;10.95;;;;;;;7.80;100.00;101700.06;5068176;28;20045;-30
2022/03/29 03:16:21;;;;;;;18.08;12.27;;;;;;;7.80;100.00;101698.13;5065969;28;20048;-29
2022/03/29 03:18:50;;;;;;;18.65;11.82;;;;;;;7.80;100.00;101700.91;5066237;28;20500;-28
2022/03/29 03:21:18;;;;;;;15.13;11.15;;;;;;;7.80;100.00;101703.69;5066175;28;20044;-28
2022/03/29 03:23:45;;;;;;;17.42;11.45;;;;;;;7.80;100.00;101700.91;5067957;28;20045;-29
2022/03/29 03:26:13;;;;;;;15.35;11.10;;;;;;;7.80;100.00;101700.91;5065186;28;20048;-30
2022/03/29 03:28:41;;;;;;;22.10;14.80;;;;;;;7.78;100.00;101685.63;5067018;28;20044;-28
2022/03/29 03:31:09;;;;;;;18.92;13.07;;;;;;;7.74;100.00;101688.09;5066100;28;20049;-30
2022/03/29 03:33:37;;;;;;;19.35;14.50;;;;;;;7.73;100.00;101683.63;5064608;28;20056;-28
2022/03/29 03:36:07;;;;;;;17.70;12.23;;;;;;;7.72;100.00;101679.16;5064753;28;20497;-30
2022/03/29 03:38:34;;;;;;;17.48;11.85;;;;;;;7.72;100.00;101676.38;5065457;28;20154;-26
2022/03/29 03:41:02;;;;;;;17.05;12.35;;;;;;;7.74;100.00;101676.13;5066315;28;20482;-28
2022/03/29 03:43:30;;;;;;;15.82;11.30;;;;;;;7.74;100.00;101668.63;5062915;28;20060;-29
2022/03/29 03:45:57;;;;;;;16.63;12.32;;;;;;;7.77;100.00;101667.28;5073274;28;20490;-27
2022/03/29 03:48:25;;;;;;;14.88;10.75;;;;;;;7.79;100.00;101656.75;5062507;28;20044;-27
2022/03/29 03:50:53;;;;;;;17.80;11.38;;;;;;;7.80;100.00;101662.00;5068270;28;20045;-27
2022/03/29 03:53:22;;;;;;;15.50;10.70;;;;;;;7.82;100.00;101654.25;5061505;28;20052;-30
2022/03/29 03:55:50;;;;;;;15.15;11.30;;;;;;;7.83;100.00;101653.16;5068099;28;20051;-27
2022/03/29 03:58:18;;;;;;;12.45;9.35;;;;;;;7.85;100.00;101647.34;5065207;28;20059;-29
2022/03/29 04:00:46;;;;;;;14.98;9.95;;;;;;;7.84;100.00;101645.66;5046312;28;20052;-28
2022/03/29 04:03:13;;;;;;;14.82;10.63;;;;;;;7.86;100.00;101644.31;5062552;28;20111;-30
2022/03/29 04:05:41;;;;;;;15.20;9.93;;;;;;;7.85;100.00;101650.97;5059791;28;20044;-28
2022/03/29 04:08:10;;;;;;;14.85;9.48;;;;;;;7.85;100.00;101650.13;5062262;28;20040;-26
2022/03/29 04:10:41;;;;;;;20.88;13.70;;;;;;;7.85;100.00;101642.63;5061045;28;20129;-29
2022/03/29 04:13:09;;;;;;;19.90;13.90;;;;;;;7.82;100.00;101637.59;5061914;28;20048;-31
2022/03/29 04:15:37;;;;;;;25.42;14.32;;;;;;;7.81;100.00;101638.69;5065438;28;20048;-33
2022/03/29 04:18:05;;;;;;;18.27;11.40;;;;;;;7.78;100.00;101633.69;5063672;28;20084;-30
2022/03/29 04:20:32;;;;;;;21.73;14.35;;;;;;;7.78;100.00;101635.63;5059664;28;20056;-29
2022/03/29 04:23:00;;;;;;;17.83;10.88;;;;;;;7.75;100.00;101630.59;5064022;28;20045;-28
2022/03/29 04:25:28;;;;;;;19.35;13.40;;;;;;;7.74;100.00;101629.75;5065978;28;20068;-27
2022/03/29 04:27:57;;;;;;;22.73;14.63;;;;;;;7.76;100.00;101632.25;5047780;28;20444;-30
2022/03/29 04:30:25;;;;;;;21.38;14.20;;;;;;;7.75;100.00;101623.09;5065321;28;20048;-28
2022/03/29 04:32:53;;;;;;;17.08;11.50;;;;;;;7.74;100.00;101621.41;5065971;28;20048;-28
2022/03/29 04:35:21;;;;;;;13.05;8.45;;;;;;;7.74;100.00;101617.78;5062600;28;20618;-29
2022/03/29 04:37:49;;;;;;;15.13;9.65;;;;;;;7.74;100.00;101626.97;5067272;28;20060;-29
2022/03/29 04:40:16;;;;;;;15.52;9.32;;;;;;;7.74;100.00;101624.19;5061246;28;20497;-28
2022/03/29 04:42:45;;;;;;;16.30;10.60;;;;;;;7.75;100.00;101623.09;5066516;28;20048;-34
2022/03/29 04:45:15;;;;;;;18.13;11.95;;;;;;;7.74;100.00;101617.78;5063551;28;20060;-34
2022/03/29 04:47:43;;;;;;;17.98;11.60;;;;;;;7.74;100.00;101621.41;5065934;28;20060;-27
2022/03/29 04:50:13;;;;;;;16.30;11.18;;;;;;;7.73;100.00;101616.94;5059101;28;20063;-27
2022/03/29 04:52:44;;;;;;;12.70;8.13;;;;;;;7.73;100.00;101614.19;5066010;28;20055;-28
2022/03/29 04:55:13;;;;;;;13.30;8.32;;;;;;;7.74;100.00;101615.00;5060310;28;20087;-28
2022/03/29 04:57:42;;;;;;;16.17;10.75;;;;;;;7.73;100.00;101610.56;5064722;28;20044;-28
2022/03/29 05:00:12;;;;;;;16.20;11.27;;;;;;;7.72;100.00;101614.44;5053428;28;20037;-28
2022/03/29 05:02:43;;;;;;;18.45;12.05;;;;;;;7.69;100.00;101615.78;5067120;28;20094;-28
2022/03/29 05:05:12;;;;;;;15.75;10.45;;;;;;;7.66;100.00;101612.69;5058372;28;20493;-28
2022/03/29 05:07:40;;;;;;;19.85;13.65;;;;;;;7.64;100.00;101614.88;5064890;28;20052;-28
2022/03/29 05:10:09;;;;;;;16.48;11.60;;;;;;;7.61;100.00;101614.31;5062556;28;20060;-28
2022/03/29 05:12:40;;;;;;;15.75;11.02;;;;;;;7.58;100.00;101609.31;5061864;28;20414;-28
2022/03/29 05:15:09;;;;;;;15.00;9.57;;;;;;;7.55;100.00;101607.03;5063259;28;20049;-29
2022/03/29 05:17:37;;;;;;;18.00;11.63;;;;;;;7.55;100.00;101608.97;5062435;28;20049;-27
2022/03/29 05:20:08;;;;;;;18.02;11.35;;;;;;;7.53;100.00;101609.25;5061526;28;20053;-30
2022/03/29 05:22:42;;;;;;;18.10;12.27;;;;;;;7.51;100.00;101605.88;5057122;28;20032;-31
2022/03/29 05:25:10;;;;;;;12.77;8.95;;;;;;;7.49;100.00;101607.25;5062584;28;20068;-28
2022/03/29 05:27:38;;;;;;;17.65;11.75;;;;;;;7.48;100.00;101609.16;5064256;28;20536;-30
2022/03/29 05:30:07;;;;;;;19.58;12.60;;;;;;;7.46;100.00;101604.97;5056741;28;20044;-28
2022/03/29 05:32:35;;;;;;;15.70;11.05;;;;;;;7.46;100.00;101605.81;5057769;28;20049;-29
2022/03/29 05:35:03;;;;;;;14.32;10.27;;;;;;;7.46;100.00;101603.03;5059042;28;20080;-28
2022/03/29 05:37:32;;;;;;;17.15;11.25;;;;;;;7.46;100.00;101600.25;5060466;28;20056;-29
2022/03/29 05:40:00;;;;;;;15.43;10.23;;;;;;;7.45;100.00;101597.75;5056996;28;20045;-28
2022/03/29 05:42:28;;;;;;;17.23;11.27;;;;;;;7.44;100.00;101607.16;5062441;28;20060;-28
2022/03/29 05:44:56;;;;;;;16.63;10.45;;;;;;;7.43;100.00;101611.03;5057618;28;20045;-27
2022/03/29 05:50:09;;;;;;;15.98;10.57;;;;;;;7.45;100.00;101609.69;5057283;28;20041;-28
2022/03/29 05:52:38;;;;;;;17.20;11.48;;;;;;;7.48;100.00;101603.63;5062646;28;20045;-26
2022/03/29 05:55:07;;;;;;;17.75;12.45;;;;;;;7.49;100.00;101610.00;5057356;28;20049;-32
2022/03/29 05:57:34;;;;;;;17.25;11.70;;;;;;;7.50;100.00;101608.91;5063329;28;20055;-30
2022/03/29 06:00:03;;;;;;;13.32;9.35;;;;;;;7.51;100.00;101597.53;5061378;28;20380;-31
2022/03/29 06:02:31;;;;;;;19.98;12.88;;;;;;;7.53;100.00;101605.63;5063395;28;20055;-28
2022/03/29 06:04:59;;;;;;;16.92;11.30;;;;;;;7.54;100.00;101598.97;5057456;28;20053;-29
2022/03/29 06:07:27;;;;;;;24.73;14.30;;;;;;;7.55;100.00;101601.50;5062394;28;20489;-26
2022/03/29 06:09:56;;;;;;;19.17;13.30;;;;;;;7.54;100.00;101599.81;5057296;28;20047;-28
2022/03/29 06:12:24;;;;;;;17.73;11.27;;;;;;;7.57;100.00;101606.78;5062232;28;20041;-27
2022/03/29 06:14:51;;;;;;;23.17;13.88;;;;;;;7.59;100.00;101599.03;5057566;28;20516;-27
2022/03/29 06:17:19;;;;;;;22.98;14.32;;;;;;;7.60;100.00;101595.97;5060162;28;20068;-28
2022/03/29 06:19:47;;;;;;;26.17;15.68;;;;;;;7.61;100.00;101599.59;5058772;28;20056;-28
2022/03/29 06:22:15;;;;;;;25.55;15.48;;;;;;;7.61;100.00;101599.59;5059526;28;20212;-27
2022/03/29 06:24:43;;;;;;;26.88;17.17;;;;;;;7.63;100.00;101600.16;5057592;28;20094;-28
2022/03/29 06:27:12;;;;;;;26.00;15.13;;;;;;;7.66;100.00;101609.91;5060579;28;20447;-27
2022/03/29 06:29:40;;;;;;;25.33;15.32;;;;;;;7.67;100.00;101612.44;5058019;28;20060;-28
2022/03/29 06:32:08;;;;;;;25.13;15.88;;;;;;;7.69;100.00;101604.69;5063815;28;20490;-29
2022/03/29 06:34:36;;;;;;;24.00;15.32;;;;;;;7.74;100.00;101604.75;5063246;28;20106;-28
2022/03/29 06:37:04;;;;;;;22.15;14.20;;;;;;;7.77;100.00;101606.16;5064130;28;20053;-28
2022/03/29 06:39:32;;;;;;;23.52;15.23;;;;;;;7.82;100.00;101603.41;5062178;28;20036;-30
2022/03/29 06:42:00;;;;;;;21.67;13.93;;;;;;;7.83;100.00;101600.38;5066843;28;20052;-29
2022/03/29 06:44:34;;;;;;;21.52;13.98;;;;;;;7.85;100.00;101603.72;5066832;28;20061;-29
2022/03/29 06:47:03;;;;;;;25.85;15.15;;;;;;;7.88;100.00;101597.66;5061085;28;20041;-28
2022/03/29 06:49:31;;;;;;;27.90;15.65;;;;;;;7.90;100.00;101602.94;5066290;28;20037;-28
2022/03/29 06:51:59;;;;;;;26.92;15.73;;;;;;;7.90;100.00;101608.50;5061119;28;20045;-27
2022/03/29 06:54:26;;;;;;;18.90;12.02;;;;;;;7.93;100.00;101611.59;5067110;28;20052;-28
2022/03/29 06:56:54;;;;;;;18.40;12.80;;;;;;;7.99;100.00;101603.31;5060260;28;20041;-28
2022/03/29 06:59:22;;;;;;;23.00;13.93;;;;;;;8.04;100.00;101611.69;5061604;28;20482;-31
2022/03/29 07:01:51;;;;;;;19.13;12.73;;;;;;;8.11;100.00;101601.19;5068860;28;20063;-32
2022/03/29 07:04:19;;;;;;;21.65;14.65;;;;;;;8.21;100.00;101604.88;5058253;28;20379;-28
2022/03/29 07:06:47;;;;;;;28.38;16.08;;;;;;;8.42;100.00;101602.28;5069078;28;20132;-28
2022/03/29 07:12:07;;;;;;;22.70;14.18;;;;;;;8.57;100.00;101608.84;5059908;28;20048;-27
2022/03/29 07:14:35;;;;;;;26.23;14.80;;;;;;;8.60;100.00;101605.50;5066305;28;20044;-28
2022/03/29 07:17:09;;;;;;;25.17;15.38;;;;;;;8.59;100.00;101603.81;5059913;28;20056;-28
2022/03/29 07:19:37;;;;;;;22.15;14.35;;;;;;;8.59;100.00;101612.16;5065206;28;20123;-28
2022/03/29 07:22:06;;;;;;;24.42;15.15;;;;;;;8.64;100.00;101605.78;5061448;28;20094;-28
2022/03/29 07:24:34;;;;;;;22.92;13.55;;;;;;;8.67;100.00;101612.78;5062139;28;20078;-30
2022/03/29 07:27:02;;;;;;;22.58;15.02;;;;;;;8.73;100.00;101606.13;5062050;28;20041;-28
2022/03/29 07:29:30;;;;;;;27.17;15.43;;;;;;;8.74;100.00;101608.66;5063514;28;20049;-28
2022/03/29 07:31:58;;;;;;;25.50;15.88;;;;;;;8.70;100.00;101603.88;5067391;28;20049;-28
2022/03/29 07:34:27;;;;;;;23.52;14.45;;;;;;;8.68;100.00;101606.09;5065830;28;20052;-28
2022/03/29 07:36:56;;;;;;;25.00;15.75;;;;;;;8.70;100.00;101609.47;5067036;28;20049;-27
2022/03/29 07:39:24;;;;;;;19.30;12.43;;;;;;;8.72;100.00;101604.47;5061417;28;20045;-28
2022/03/29 07:41:52;;;;;;;23.25;15.00;;;;;;;8.77;100.00;101610.91;5061384;28;20479;-28
2022/03/29 07:44:19;;;;;;;23.27;15.05;;;;;;;8.82;100.00;101605.34;5061851;28;20119;-30
2022/03/29 07:46:47;;;;;;;26.25;16.48;;;;;;;8.88;100.00;101597.88;5062881;28;20048;-29
2022/03/29 07:49:15;;;;;;;20.90;13.95;;;;;;;8.93;100.00;101595.97;5059965;28;20117;-29
2022/03/29 07:52:05;;;;;;;24.20;14.43;;;;;;;8.96;100.00;101608.50;5064762;28;20123;-28
2022/03/29 07:54:32;;;;;;;22.13;14.63;;;;;;;8.98;100.00;101606.28;5067377;28;20437;-27
2022/03/29 07:57:01;;;;;;;22.63;13.90;;;;;;;9.06;100.00;101608.53;5063573;28;20048;-29
2022/03/29 07:59:29;;;;;;;21.63;13.73;;;;;;;9.15;100.00;101606.09;5069188;28;20058;-28
2022/03/29 08:01:57;;;;;;;23.15;13.30;;;;;;;9.17;100.00;101604.72;5066267;28;20049;-28
2022/03/29 08:04:25;;;;;;;21.63;13.13;;;;;;;9.26;100.00;101602.22;5059767;28;20044;-28
2022/03/29 08:06:52;;;;;;;22.17;12.75;;;;;;;9.37;100.00;101603.13;5065170;28;20136;-28
2022/03/29 08:09:21;;;;;;;20.13;12.93;;;;;;;9.49;100.00;101607.34;5059750;28;20047;-29
2022/03/29 08:11:50;;;;;;;20.75;13.15;;;;;;;9.60;100.00;101610.97;5065573;28;20044;-28
2022/03/29 08:14:18;;;;;;;21.45;13.13;;;;;;;9.60;100.00;101606.25;5058681;28;20049;-29
2022/03/29 08:16:46;;;;;;;22.90;14.10;;;;;;;9.65;100.00;101613.78;5065274;28;20080;-29
2022/03/29 08:19:14;;;;;;;22.48;12.15;;;;;;;9.71;100.00;101609.06;5059299;28;20500;-28
2022/03/29 08:21:50;;;;;;;20.38;12.80;;;;;;;9.79;100.00;101603.78;5045090;28;20041;-27
2022/03/29 08:24:20;;;;;;;23.67;12.07;;;;;;;9.83;100.00;101592.91;5059583;28;20424;-28
2022/03/29 08:26:51;;;;;;;25.92;14.23;;;;;;;9.87;100.00;101599.63;5063065;28;20413;-28
2022/03/29 08:29:21;;;;;;;20.92;13.02;;;;;;;9.93;100.00;101601.31;5059516;28;20453;-29
2022/03/29 08:31:51;;;;;;;19.08;12.90;;;;;;;9.92;100.00;101597.69;5061784;28;20056;-30
2022/03/29 08:34:20;;;;;;;16.67;10.52;;;;;;;9.90;100.00;101588.75;5060078;28;20095;-32
2022/03/29 08:36:49;;;;;;;21.98;13.02;;;;;;;9.99;100.00;101587.06;5061881;28;20052;-30
2022/03/29 08:39:17;;;;;;;17.08;11.57;;;;;;;9.97;100.00;101580.13;5059686;28;20054;-30
2022/03/29 08:41:50;;;;;;;27.30;14.25;;;;;;;9.92;99.94;101586.53;5061056;28;20040;-27
2022/03/29 08:44:19;;;;;;;23.17;13.23;;;;;;;9.86;99.73;101584.84;5059658;28;20074;-32
2022/03/29 08:46:49;;;;;;;23.48;14.48;;;;;;;9.86;100.00;101587.63;5069564;28;20453;-31
2022/03/29 08:49:19;;;;;;;23.02;13.73;;;;;;;9.93;99.21;101574.25;5059647;28;20053;-28
2022/03/29 08:51:47;;;;;;;26.67;13.30;;;;;;;10.18;100.00;101576.22;5060362;28;20040;-29
2022/03/29 08:54:15;;;;;;;23.70;13.68;;;;;;;10.34;98.19;101571.50;5060399;28;20048;-34
2022/03/29 08:56:43;;;;;;;20.73;12.60;;;;;;;10.28;96.06;101578.19;5064487;28;20048;-29
2022/03/29 08:59:11;;;;;;;20.88;13.68;;;;;;;10.32;96.91;101573.75;5054274;28;20059;-30
2022/03/29 09:01:40;;;;;;;23.13;13.52;;;;;;;10.63;98.15;101568.94;5065282;28;20418;-29
2022/03/29 09:04:11;;;;;;;21.98;12.18;;;;;;;10.97;95.52;101566.34;5062582;28;20047;-29
2022/03/29 09:06:56;;;;;;;18.50;11.13;;;;;;;11.48;95.70;101568.91;5058524;28;20077;-28
2022/03/29 09:09:26;;;;;;;19.63;12.52;;;;;;;11.95;93.47;101562.75;5061034;28;20040;-29
2022/03/29 09:11:56;;;;;;;22.88;13.20;;;;;;;12.07;88.92;101554.81;5066652;28;20094;-29
2022/03/29 09:14:25;;;;;;;15.20;10.93;;;;;;;11.94;86.54;101563.88;5060732;28;20105;-27
2022/03/29 09:16:54;;;;;;;22.73;12.82;;;;;;;11.98;86.91;101570.56;5065727;28;20410;-29
2022/03/29 09:19:25;;;;;;;18.75;12.32;;;;;;;12.25;87.14;101559.69;5060762;28;20049;-28
2022/03/29 09:21:55;;;;;;;19.40;12.15;;;;;;;12.87;87.66;101554.31;5066589;28;20044;-28
2022/03/29 09:24:24;;;;;;;19.00;10.77;;;;;;;13.44;83.24;101559.78;5059867;28;20101;-30
2022/03/29 09:26:54;;;;;;;17.50;11.00;;;;;;;13.72;80.89;101559.94;5066335;28;20055;-29
2022/03/29 09:29:24;;;;;;;19.60;11.65;;;;;;;13.84;79.37;101560.31;5060421;28;20045;-28
2022/03/29 09:32:08;;;;;;;17.77;11.73;;;;;;;13.80;76.58;101562.88;5065562;28;20052;-28
2022/03/29 09:34:37;;;;;;;23.60;12.83;;;;;;;13.85;77.18;101553.56;5060591;28;20060;-29
2022/03/29 09:37:05;;;;;;;18.45;11.70;;;;;;;14.20;75.54;101552.13;5065982;28;20052;-29
2022/03/29 09:39:36;;;;;;;18.75;11.13;;;;;;;14.35;75.17;101553.88;5059578;28;20045;-30
2022/03/29 09:42:07;;;;;;;18.80;11.82;;;;;;;14.64;73.14;101548.03;5065919;28;20055;-29
2022/03/29 09:44:41;;;;;;;19.67;11.80;;;;;;;14.60;70.75;101545.00;5058452;28;20049;-28
2022/03/29 09:47:12;;;;;;;17.17;10.65;;;;;;;14.57;70.34;101542.84;5039976;28;20429;-29
2022/03/29 09:49:54;;;;;;;19.30;11.10;;;;;;;14.58;69.28;101538.03;5062702;28;20048;-29
2022/03/29 09:52:24;;;;;;;20.38;13.25;;;;;;;14.96;71.24;101531.09;5056710;28;20076;-29
2022/03/29 09:55:09;;;;;;;18.60;11.48;;;;;;;15.58;67.14;101533.44;5063092;28;20052;-30
2022/03/29 09:57:39;;;;;;;18.42;11.02;;;;;;;16.07;66.73;101535.34;5057956;28;20045;-29
2022/03/29 10:00:09;;;;;;;20.00;11.07;;;;;;;16.43;64.51;101533.25;5065944;28;20386;-30
2022/03/29 10:02:47;;;;;;;16.63;9.95;;;;;;;16.72;62.60;101534.78;5056187;28;20520;-29
2022/03/29 10:05:18;;;;;;;16.10;10.20;;;;;;;16.61;61.88;101531.38;5064799;28;20053;-30
2022/03/29 10:07:51;;;;;;;17.85;10.63;;;;;;;16.63;61.90;101531.91;5056863;28;20040;-28
2022/03/29 10:10:19;;;;;;;21.05;11.38;;;;;;;16.87;61.71;101529.53;5062156;28;20128;-30
2022/03/29 10:12:48;;;;;;;19.27;10.32;;;;;;;17.36;60.40;101530.38;5057710;28;20452;-31
2022/03/29 10:15:38;;;;;;;19.50;11.13;;;;;;;17.95;57.77;101530.78;5063070;28;20052;-29
2022/03/29 10:18:08;;;;;;;16.85;10.18;;;;;;;18.08;56.31;101515.66;5057799;28;20110;-31
2022/03/29 10:20:36;;;;;;;19.10;12.48;;;;;;;18.03;55.56;101531.94;5060575;28;20048;-28
2022/03/29 10:23:06;;;;;;;17.88;10.80;;;;;;;17.67;55.62;101529.44;5058826;28;20139;-28
2022/03/29 10:25:35;;;;;;;17.58;10.32;;;;;;;17.57;56.12;101527.75;5059575;28;20048;-29
2022/03/29 10:28:05;;;;;;;17.13;10.70;;;;;;;17.34;56.55;101527.03;5057881;28;20075;-29
2022/03/29 10:30:34;;;;;;;17.85;11.18;;;;;;;17.04;57.14;101527.94;5059973;28;20467;-30
2022/03/29 10:33:19;;;;;;;17.98;11.27;;;;;;;16.82;55.39;101524.03;5057645;28;20490;-29
2022/03/29 10:36:08;;;;;;;16.50;11.65;;;;;;;16.63;55.75;101525.41;5059077;28;20045;-28
2022/03/29 10:38:55;;;;;;;16.35;10.15;;;;;;;16.32;57.16;101523.44;5044417;28;20045;-28
2022/03/29 10:41:52;;;;;;;18.63;10.90;;;;;;;15.99;55.98;101525.66;5039935;28;20040;-28
2022/03/29 10:44:20;;;;;;;16.30;10.63;;;;;;;15.48;60.09;101523.22;5037049;28;20107;-28
2022/03/29 10:46:49;;;;;;;20.23;10.98;;;;;;;15.33;61.54;101524.41;5043037;28;20045;-30
2022/03/29 10:49:20;;;;;;;19.83;13.00;;;;;;;15.26;61.66;101525.97;5036467;28;20065;-28
2022/03/29 10:51:49;;;;;;;18.20;12.10;;;;;;;14.91;62.02;101519.13;5042649;28;20494;-29
2022/03/29 10:54:29;;;;;;;19.00;12.10;;;;;;;14.81;61.02;101520.16;5037023;28;20053;-29
2022/03/29 10:57:03;;;;;;;18.30;11.23;;;;;;;14.76;63.48;101509.03;5041512;28;20045;-29
2022/03/29 10:59:31;;;;;;;17.75;11.35;;;;;;;14.96;63.31;101504.97;5038206;28;20045;-33
2022/03/29 11:02:11;;;;;;;17.70;11.98;;;;;;;15.20;62.64;101499.94;5040364;28;20050;-29
2022/03/29 11:05:09;;;;;;;16.73;10.77;;;;;;;15.46;60.24;101503.84;5036995;28;20049;-29
2022/03/29 11:07:39;;;;;;;20.48;11.75;;;;;;;15.85;61.30;101510.81;5042489;28;20470;-30
2022/03/29 11:10:09;;;;;;;20.15;12.32;;;;;;;15.91;58.68;101501.13;5036091;28;20057;-29
2022/03/29 11:12:44;;;;;;;19.80;12.65;;;;;;;16.06;59.79;101494.25;5042853;28;20051;-28
2022/03/29 11:15:40;;;;;;;22.08;12.48;;;;;;;16.60;56.08;101500.69;5036943;28;20056;-34
2022/03/29 11:18:39;;;;;;;18.10;11.70;;;;;;;17.00;56.74;101498.72;5042195;28;20557;-35
2022/03/29 11:21:10;;;;;;;18.85;11.40;;;;;;;17.24;55.58;101499.13;5036889;28;20063;-33
2022/03/29 11:23:40;;;;;;;19.55;11.32;;;;;;;17.15;55.02;101493.50;5041922;28;20054;-31
2022/03/29 11:26:12;;;;;;;19.75;12.00;;;;;;;17.00;55.24;101498.72;5036623;28;20147;-29
2022/03/29 11:28:48;;;;;;;18.17;11.88;;;;;;;17.21;55.22;101491.31;5045924;28;20053;-29